Time;durP1;ratioP1;P1;durP2;ratioP2;P2;SDS_P1;SDS_P2;PMS_P1;PMS_P2;Temp;Humidity;BMP_temperature;BMP_pressure;BME280_temperature;BME280_humidity;BME280_pressure;Samples;Min_cycle;Max_cycle;Signal;HPM_P1;HPM_P2
2023/07/15 00:00:31;;;;;;;4.60;2.17;;;18.60;83.90;;;;;;2065451;28;20994;-67
2023/07/15 00:01:36;;;;;;;2.50;2.30;;;18.50;84.60;;;;;;2078420;28;20227;-68
2023/07/15 00:02:37;;;;;;;7.60;2.57;;;18.50;84.60;;;;;;2081763;28;20903;-67
2023/07/15 00:03:38;;;;;;;2.33;1.80;;;18.50;83.30;;;;;;2076009;28;20458;-67
2023/07/15 00:04:38;;;;;;;4.10;2.33;;;18.50;83.20;;;;;;2077883;28;20228;-67
2023/07/15 00:05:39;;;;;;;2.57;1.97;;;18.50;82.60;;;;;;2076476;28;20256;-67
2023/07/15 00:06:42;;;;;;;2.20;2.00;;;18.50;82.70;;;;;;2078646;28;20575;-67
2023/07/15 00:07:42;;;;;;;2.97;2.07;;;18.50;83.00;;;;;;2065110;28;20245;-67
2023/07/15 00:08:44;;;;;;;2.33;1.87;;;18.50;84.60;;;;;;2066921;28;20464;-67
2023/07/15 00:09:46;;;;;;;2.33;2.10;;;18.40;83.90;;;;;;2075295;28;20228;-67
2023/07/15 00:10:46;;;;;;;3.47;2.10;;;18.40;84.20;;;;;;2076591;28;20672;-67
2023/07/15 00:11:47;;;;;;;2.13;1.97;;;18.40;84.70;;;;;;2078874;28;20526;-67
2023/07/15 00:12:48;;;;;;;3.00;2.50;;;18.30;85.50;;;;;;2076863;28;20900;-67
2023/07/15 00:13:49;;;;;;;4.17;2.57;;;18.30;86.20;;;;;;2076325;28;20232;-67
2023/07/15 00:14:50;;;;;;;3.47;2.63;;;18.30;86.70;;;;;;2074231;28;20667;-67
2023/07/15 00:15:53;;;;;;;3.97;2.40;;;18.30;87.00;;;;;;2078372;28;20263;-68
2023/07/15 00:16:54;;;;;;;5.53;2.50;;;18.30;87.30;;;;;;2077870;28;20536;-68
2023/07/15 00:17:54;;;;;;;4.43;2.67;;;18.20;87.70;;;;;;2076128;28;20478;-71
2023/07/15 00:18:55;;;;;;;4.80;2.60;;;18.20;88.60;;;;;;2077503;28;20708;-68
2023/07/15 00:19:56;;;;;;;4.27;2.53;;;18.10;89.00;;;;;;2079669;28;20236;-67
2023/07/15 00:20:57;;;;;;;13.13;6.90;;;18.00;89.70;;;;;;2078522;28;20618;-67
2023/07/15 00:21:57;;;;;;;10.57;6.30;;;18.00;89.60;;;;;;2077333;28;20489;-67
2023/07/15 00:22:59;;;;;;;8.70;5.23;;;17.90;90.10;;;;;;2077637;28;20240;-67
2023/07/15 00:24:00;;;;;;;8.60;4.50;;;17.90;90.00;;;;;;2078254;28;20232;-67
2023/07/15 00:25:05;;;;;;;6.90;4.40;;;17.90;90.10;;;;;;2070881;28;21173;-69
2023/07/15 00:26:07;;;;;;;6.00;3.70;;;17.80;90.60;;;;;;2070062;28;20423;-67
2023/07/15 00:27:08;;;;;;;4.80;3.43;;;17.70;90.90;;;;;;2072451;28;21113;-67
2023/07/15 00:28:10;;;;;;;6.80;3.80;;;17.60;91.00;;;;;;2071597;28;20498;-67
2023/07/15 00:29:10;;;;;;;7.37;4.03;;;17.60;91.20;;;;;;2079024;28;20457;-67
2023/07/15 00:30:15;;;;;;;4.37;3.53;;;17.60;91.30;;;;;;2079810;28;20441;-67
2023/07/15 00:31:17;;;;;;;5.77;3.37;;;17.60;91.60;;;;;;2088609;28;20176;-67
2023/07/15 00:32:18;;;;;;;6.30;3.43;;;17.50;92.00;;;;;;2067596;28;20459;-68
2023/07/15 00:33:20;;;;;;;5.07;2.90;;;17.40;91.90;;;;;;2063713;28;20427;-67
2023/07/15 00:34:20;;;;;;;3.50;2.80;;;17.50;91.80;;;;;;2074590;28;21408;-68
2023/07/15 00:35:28;;;;;;;4.33;2.73;;;17.50;92.00;;;;;;2079269;28;20470;-67
2023/07/15 00:36:32;;;;;;;3.83;2.63;;;17.40;92.40;;;;;;2071328;28;20292;-67
2023/07/15 00:37:36;;;;;;;3.07;2.77;;;17.40;92.30;;;;;;2066330;28;20464;-67
2023/07/15 00:38:37;;;;;;;3.73;2.70;;;17.30;92.00;;;;;;2075190;28;20470;-67
2023/07/15 00:39:38;;;;;;;2.77;2.23;;;17.30;92.40;;;;;;2070500;28;20487;-67
2023/07/15 00:40:46;;;;;;;5.73;2.40;;;17.10;93.10;;;;;;2077408;28;20228;-69
2023/07/15 00:41:46;;;;;;;2.93;2.03;;;17.10;93.10;;;;;;2085803;28;20469;-68
2023/07/15 00:42:52;;;;;;;3.43;2.47;;;17.10;92.00;;;;;;2075976;28;20496;-68
2023/07/15 00:43:59;;;;;;;3.87;3.13;;;17.10;92.80;;;;;;2078729;28;20228;-67
2023/07/15 00:45:01;;;;;;;3.17;2.77;;;17.10;92.80;;;;;;2082187;28;20458;-67
2023/07/15 00:46:23;;;;;;;4.50;2.90;;;17.10;92.90;;;;;;2079921;28;20487;-68
2023/07/15 00:47:45;;;;;;;4.10;2.90;;;17.10;92.80;;;;;;2074894;28;20480;-65
2023/07/15 00:48:52;;;;;;;4.57;3.40;;;17.20;92.70;;;;;;2071450;28;20474;-67
2023/07/15 00:49:54;;;;;;;5.87;3.30;;;17.20;92.50;;;;;;2085406;28;20540;-68
2023/07/15 00:50:55;;;;;;;5.80;3.10;;;17.20;92.40;;;;;;2078430;28;20469;-67
2023/07/15 00:52:12;;;;;;;4.83;3.00;;;17.30;92.50;;;;;;2078277;28;20540;-69
2023/07/15 00:53:13;;;;;;;4.27;3.10;;;17.30;92.70;;;;;;2073888;28;20462;-68
2023/07/15 00:54:14;;;;;;;5.13;3.17;;;17.30;92.60;;;;;;2078029;28;20485;-68
2023/07/15 00:55:15;;;;;;;4.43;2.97;;;17.20;92.60;;;;;;2078516;28;20528;-67
2023/07/15 00:56:16;;;;;;;4.57;3.20;;;17.20;92.70;;;;;;2077915;28;20457;-67
2023/07/15 00:57:19;;;;;;;4.30;2.97;;;17.10;92.90;;;;;;2067003;28;20185;-67
2023/07/15 00:58:19;;;;;;;3.83;3.07;;;17.10;93.00;;;;;;2067992;28;20450;-67
2023/07/15 00:59:20;;;;;;;3.27;2.97;;;17.10;93.30;;;;;;2070450;28;22082;-67
2023/07/15 01:00:22;;;;;;;5.83;3.10;;;17.00;93.80;;;;;;2082286;28;20240;-67
2023/07/15 01:01:23;;;;;;;3.00;2.60;;;16.90;93.90;;;;;;2076122;28;20422;-67
2023/07/15 01:02:24;;;;;;;3.60;2.60;;;16.90;94.10;;;;;;2063905;28;20523;-67
2023/07/15 01:03:25;;;;;;;4.37;2.47;;;16.80;94.40;;;;;;2080079;28;20185;-67
2023/07/15 01:04:26;;;;;;;3.73;2.80;;;16.80;94.70;;;;;;2076631;28;20476;-67
2023/07/15 01:05:28;;;;;;;3.00;2.50;;;16.70;94.70;;;;;;2079822;28;20181;-67
2023/07/15 01:06:29;;;;;;;4.33;3.33;;;16.70;94.60;;;;;;2069087;28;20478;-67
2023/07/15 01:07:29;;;;;;;4.97;3.00;;;16.80;94.20;;;;;;2087900;28;20424;-67
2023/07/15 01:08:30;;;;;;;3.10;2.80;;;16.80;94.00;;;;;;2065252;28;20236;-67
2023/07/15 01:09:32;;;;;;;4.13;3.10;;;16.80;94.00;;;;;;2068082;28;20244;-67
2023/07/15 01:10:32;;;;;;;3.60;2.80;;;16.90;94.30;;;;;;2070883;28;21071;-67
2023/07/15 01:11:34;;;;;;;3.07;2.70;;;16.90;93.70;;;;;;2076057;28;20423;-67
2023/07/15 01:12:34;;;;;;;3.53;2.83;;;16.80;93.70;;;;;;2065118;28;20239;-67
2023/07/15 01:13:35;;;;;;;6.10;3.13;;;16.90;93.80;;;;;;2079571;28;20953;-67
2023/07/15 01:14:37;;;;;;;3.47;2.67;;;16.80;93.70;;;;;;2063677;28;20231;-67
2023/07/15 01:15:38;;;;;;;5.50;3.00;;;16.80;93.90;;;;;;2079791;28;20193;-68
2023/07/15 01:16:40;;;;;;;3.77;2.80;;;16.90;93.80;;;;;;2077540;28;20476;-68
2023/07/15 01:17:41;;;;;;;3.57;2.90;;;16.90;93.80;;;;;;2076115;28;21189;-67
2023/07/15 01:18:45;;;;;;;3.00;2.67;;;16.80;94.00;;;;;;2088058;28;20905;-68
2023/07/15 01:19:45;;;;;;;4.33;3.00;;;16.70;94.00;;;;;;2068722;28;20523;-67
2023/07/15 01:20:47;;;;;;;4.13;3.07;;;16.70;94.20;;;;;;2081935;28;20426;-67
2023/07/15 01:21:49;;;;;;;3.70;2.80;;;16.70;94.10;;;;;;2059633;28;20233;-67
2023/07/15 01:22:50;;;;;;;3.60;2.70;;;16.70;94.30;;;;;;2071774;28;20506;-67
2023/07/15 01:23:51;;;;;;;4.57;2.73;;;16.60;95.30;;;;;;2069409;28;20469;-67
2023/07/15 01:24:52;;;;;;;3.17;2.57;;;16.40;95.80;;;;;;2080148;28;20204;-67
2023/07/15 01:25:52;;;;;;;4.30;2.90;;;16.40;95.80;;;;;;2060652;28;20229;-67
2023/07/15 01:27:02;;;;;;;3.03;2.73;;;16.40;95.70;;;;;;2079779;28;20951;-68
2023/07/15 01:28:03;;;;;;;3.13;2.63;;;16.50;95.60;;;;;;2077415;28;20224;-67
2023/07/15 01:29:04;;;;;;;3.80;3.00;;;16.50;95.50;;;;;;2088262;28;20425;-67
2023/07/15 01:30:05;;;;;;;3.33;2.50;;;16.50;95.40;;;;;;2069490;28;20224;-67
2023/07/15 01:31:07;;;;;;;3.53;2.75;;;16.50;95.40;;;;;;2071787;28;20240;-67
2023/07/15 01:32:08;;;;;;;3.95;2.83;;;16.40;95.40;;;;;;2061165;28;20312;-67
2023/07/15 01:33:08;;;;;;;5.70;3.22;;;16.50;95.50;;;;;;2060340;28;20240;-68
2023/07/15 01:34:10;;;;;;;5.47;3.10;;;16.40;95.60;;;;;;2054891;28;20252;-67
2023/07/15 01:35:11;;;;;;;3.40;2.80;;;16.40;95.70;;;;;;2054415;28;20195;-67
2023/07/15 01:36:13;;;;;;;3.43;2.77;;;16.40;95.40;;;;;;2079474;28;21021;-67
2023/07/15 01:37:13;;;;;;;3.13;2.55;;;16.40;95.60;;;;;;2073951;28;20273;-67
2023/07/15 01:38:15;;;;;;;2.57;2.33;;;16.40;95.30;;;;;;2087922;28;20638;-67
2023/07/15 01:39:17;;;;;;;3.47;2.60;;;16.50;95.60;;;;;;2077750;28;20660;-68
2023/07/15 01:40:17;;;;;;;3.77;2.93;;;16.40;95.60;;;;;;2082160;28;20433;-67
2023/07/15 01:41:18;;;;;;;3.00;2.43;;;16.30;95.60;;;;;;2066284;28;20480;-67
2023/07/15 01:42:19;;;;;;;3.40;2.73;;;16.30;95.60;;;;;;2071117;28;20650;-69
2023/07/15 01:43:20;;;;;;;3.60;2.20;;;16.20;95.70;;;;;;2069045;28;20181;-68
2023/07/15 01:44:23;;;;;;;3.97;2.60;;;16.30;95.70;;;;;;2086520;28;21001;-68
2023/07/15 01:45:25;;;;;;;2.53;2.30;;;16.30;95.50;;;;;;2069513;28;20188;-67
2023/07/15 01:46:26;;;;;;;2.40;2.20;;;16.30;95.60;;;;;;2071554;28;20948;-67
2023/07/15 01:47:27;;;;;;;3.17;2.63;;;16.20;95.80;;;;;;2068091;28;20181;-68
2023/07/15 01:48:27;;;;;;;3.53;2.20;;;16.20;95.70;;;;;;2083582;28;20182;-68
2023/07/15 01:49:28;;;;;;;2.60;2.13;;;16.10;95.80;;;;;;2075667;28;20223;-67
2023/07/15 01:50:29;;;;;;;2.30;2.10;;;16.20;95.80;;;;;;2087628;28;20184;-67
2023/07/15 01:51:30;;;;;;;2.30;2.10;;;16.20;95.50;;;;;;2074831;28;20899;-67
2023/07/15 01:52:31;;;;;;;4.13;2.10;;;16.30;95.60;;;;;;2079263;28;20215;-67
2023/07/15 01:53:32;;;;;;;2.95;2.38;;;16.30;95.70;;;;;;2069604;28;20469;-67
2023/07/15 01:54:33;;;;;;;3.50;2.40;;;16.30;95.60;;;;;;2085835;28;20703;-67
2023/07/15 01:55:33;;;;;;;2.43;1.97;;;16.30;95.30;;;;;;2073612;28;20281;-68
2023/07/15 01:56:35;;;;;;;3.20;2.87;;;16.30;95.20;;;;;;2087683;28;20188;-67
2023/07/15 01:57:36;;;;;;;3.03;2.00;;;16.50;95.10;;;;;;2069207;28;20235;-67
2023/07/15 01:58:36;;;;;;;2.57;2.20;;;16.50;94.90;;;;;;2071613;28;20415;-67
2023/07/15 01:59:37;;;;;;;2.27;1.97;;;16.50;94.60;;;;;;2067074;28;20470;-68
2023/07/15 02:00:38;;;;;;;3.13;2.30;;;16.40;94.80;;;;;;2075242;28;20216;-67
2023/07/15 02:01:40;;;;;;;2.83;2.17;;;16.40;94.60;;;;;;2076992;28;20311;-68
2023/07/15 02:02:41;;;;;;;3.27;2.30;;;16.50;95.00;;;;;;2079471;28;20185;-67
2023/07/15 02:03:42;;;;;;;2.40;2.20;;;16.40;95.00;;;;;;2053473;28;20468;-67
2023/07/15 02:04:43;;;;;;;2.93;2.17;;;16.40;95.10;;;;;;2070127;28;20236;-67
2023/07/15 02:05:43;;;;;;;2.57;2.20;;;16.30;95.40;;;;;;2075547;28;20231;-67
2023/07/15 02:06:44;;;;;;;2.90;2.40;;;16.30;95.60;;;;;;2079749;28;20188;-67
2023/07/15 02:07:45;;;;;;;3.07;2.37;;;16.20;95.70;;;;;;2064580;28;20229;-67
2023/07/15 02:08:45;;;;;;;3.17;2.13;;;16.20;95.70;;;;;;2076967;28;20246;-67
2023/07/15 02:09:46;;;;;;;3.00;2.23;;;16.20;95.60;;;;;;2064916;28;20609;-67
2023/07/15 02:10:48;;;;;;;4.70;2.53;;;16.20;95.60;;;;;;2074217;28;20192;-67
2023/07/15 02:11:49;;;;;;;2.58;2.25;;;16.20;95.60;;;;;;2064150;28;20291;-67
2023/07/15 02:12:49;;;;;;;2.67;2.40;;;16.20;95.40;;;;;;2075652;28;20274;-67
2023/07/15 02:13:50;;;;;;;3.07;2.60;;;16.20;95.40;;;;;;2069205;28;20260;-67
2023/07/15 02:14:51;;;;;;;2.53;2.33;;;16.10;95.50;;;;;;2074757;28;20283;-67
2023/07/15 02:15:52;;;;;;;3.00;2.57;;;16.20;95.60;;;;;;2063193;28;20347;-67
2023/07/15 02:16:52;;;;;;;2.50;2.30;;;16.20;95.60;;;;;;2070972;28;20185;-67
2023/07/15 02:17:54;;;;;;;2.40;2.10;;;16.20;95.80;;;;;;2054215;28;20555;-67
2023/07/15 02:18:54;;;;;;;2.83;2.30;;;16.10;96.10;;;;;;2069525;28;20185;-67
2023/07/15 02:19:58;;;;;;;4.10;2.42;;;16.10;96.20;;;;;;2070992;28;20224;-67
2023/07/15 02:20:58;;;;;;;2.53;2.33;;;16.10;96.10;;;;;;2082978;28;20692;-67
2023/07/15 02:21:59;;;;;;;2.83;2.53;;;16.10;96.00;;;;;;2069955;28;20225;-67
2023/07/15 02:23:00;;;;;;;2.37;2.13;;;16.10;96.00;;;;;;2063012;28;21064;-67
2023/07/15 02:24:03;;;;;;;5.60;2.60;;;16.20;95.70;;;;;;2056589;28;20380;-67
2023/07/15 02:25:04;;;;;;;3.40;2.50;;;16.20;95.80;;;;;;2074952;28;20734;-67
2023/07/15 02:26:05;;;;;;;3.63;2.40;;;16.10;96.00;;;;;;2069334;28;20233;-67
2023/07/15 02:27:06;;;;;;;4.27;2.20;;;16.10;96.40;;;;;;2073782;28;20251;-67
2023/07/15 02:28:06;;;;;;;3.77;2.57;;;16.20;96.40;;;;;;2066135;28;20275;-67
2023/07/15 02:29:07;;;;;;;3.50;2.17;;;16.10;96.30;;;;;;2076850;28;20192;-68
2023/07/15 02:30:09;;;;;;;3.23;2.30;;;16.20;96.00;;;;;;2067041;28;20228;-67
2023/07/15 02:31:09;;;;;;;2.97;2.20;;;16.20;95.90;;;;;;2078574;28;20195;-70
2023/07/15 02:32:39;;;;;;;2.87;2.57;;;16.20;95.60;;;;;;2079995;28;20218;-67
2023/07/15 02:33:39;;;;;;;5.00;2.10;;;16.10;96.00;;;;;;2070709;28;20236;-67
2023/07/15 02:34:40;;;;;;;2.97;2.20;;;16.10;96.20;;;;;;2081406;28;20201;-67
2023/07/15 02:35:41;;;;;;;3.20;2.20;;;16.10;96.60;;;;;;2073426;28;20283;-70
2023/07/15 02:36:41;;;;;;;3.00;2.23;;;16.10;95.90;;;;;;2088192;28;20230;-67
2023/07/15 02:37:43;;;;;;;2.43;2.23;;;16.10;96.00;;;;;;2067939;28;20249;-67
2023/07/15 02:38:44;;;;;;;3.03;2.70;;;16.10;96.10;;;;;;2071787;28;20461;-67
2023/07/15 02:39:45;;;;;;;3.00;2.17;;;16.00;96.20;;;;;;2062205;28;20284;-67
2023/07/15 02:40:48;;;;;;;4.10;2.40;;;16.10;96.20;;;;;;2069368;28;20186;-67
2023/07/15 02:41:50;;;;;;;3.38;2.75;;;16.10;96.00;;;;;;2061114;28;20237;-67
2023/07/15 02:42:50;;;;;;;3.33;2.45;;;16.10;96.40;;;;;;2077696;28;20200;-67
2023/07/15 02:43:52;;;;;;;2.60;2.40;;;16.10;96.40;;;;;;2068256;28;20732;-67
2023/07/15 02:44:52;;;;;;;2.75;2.15;;;16.00;96.50;;;;;;2079410;28;20185;-67
2023/07/15 02:45:56;;;;;;;2.77;2.23;;;16.00;96.30;;;;;;2063261;28;20230;-67
2023/07/15 02:46:57;;;;;;;2.50;2.30;;;15.90;96.60;;;;;;2081933;28;20196;-67
2023/07/15 02:47:58;;;;;;;2.20;2.00;;;15.80;96.90;;;;;;2065571;28;20233;-68
2023/07/15 02:48:59;;;;;;;2.87;2.53;;;15.80;96.70;;;;;;2071010;28;20191;-67
2023/07/15 02:50:08;;;;;;;2.30;2.10;;;15.80;96.60;;;;;;2064915;28;20233;-67
2023/07/15 02:51:09;;;;;;;2.83;2.10;;;15.90;96.70;;;;;;2074751;28;20223;-69
2023/07/15 02:52:10;;;;;;;2.70;2.00;;;15.90;96.50;;;;;;2081590;28;20204;-67
2023/07/15 02:53:10;;;;;;;3.60;2.63;;;15.90;96.40;;;;;;2080471;28;20237;-67
2023/07/15 02:54:11;;;;;;;2.65;2.45;;;16.00;96.10;;;;;;2071743;28;20587;-66
2023/07/15 02:55:12;;;;;;;2.60;1.97;;;16.00;95.70;;;;;;2075503;28;20286;-66
2023/07/15 02:56:13;;;;;;;2.47;2.20;;;16.00;96.10;;;;;;2074845;28;20186;-67
2023/07/15 02:57:14;;;;;;;2.42;1.70;;;16.00;95.60;;;;;;2077655;28;20303;-68
2023/07/15 02:58:17;;;;;;;3.73;2.37;;;16.10;94.90;;;;;;2078012;28;20331;-66
2023/07/15 02:59:17;;;;;;;3.13;2.30;;;16.10;94.80;;;;;;2064831;28;20198;-67
2023/07/15 03:00:18;;;;;;;3.53;2.40;;;16.00;94.80;;;;;;2076211;28;20191;-67
2023/07/15 03:01:21;;;;;;;3.50;2.27;;;16.10;94.90;;;;;;2075430;28;20714;-68
2023/07/15 03:02:23;;;;;;;2.78;2.20;;;16.10;95.40;;;;;;2074794;28;20470;-67
2023/07/15 03:03:23;;;;;;;2.30;2.08;;;16.00;95.50;;;;;;2073022;28;20282;-67
2023/07/15 03:04:24;;;;;;;3.47;2.13;;;16.00;95.50;;;;;;2070553;28;20287;-67
2023/07/15 03:05:25;;;;;;;2.37;2.17;;;16.00;95.50;;;;;;2076763;28;20220;-67
2023/07/15 03:06:25;;;;;;;2.70;2.40;;;15.90;96.00;;;;;;2083177;28;20781;-67
2023/07/15 03:07:26;;;;;;;3.13;2.30;;;16.00;95.30;;;;;;2084275;28;20302;-67
2023/07/15 03:08:27;;;;;;;2.90;2.30;;;16.00;95.30;;;;;;2085365;28;20736;-67
2023/07/15 03:09:27;;;;;;;3.50;2.53;;;16.00;95.30;;;;;;2076253;28;20229;-67
2023/07/15 03:10:28;;;;;;;2.20;1.90;;;16.00;95.10;;;;;;2076102;28;20693;-67
2023/07/15 03:11:29;;;;;;;3.57;2.57;;;16.00;95.00;;;;;;2083271;28;20282;-67
2023/07/15 03:12:29;;;;;;;2.30;2.10;;;16.00;95.10;;;;;;2082760;28;20363;-67
2023/07/15 03:13:30;;;;;;;3.13;2.40;;;15.90;95.50;;;;;;2079595;28;20591;-67
2023/07/15 03:14:31;;;;;;;2.80;2.07;;;15.90;95.40;;;;;;2083348;28;20835;-67
2023/07/15 03:15:31;;;;;;;2.43;2.13;;;15.90;95.20;;;;;;2078805;28;20275;-67
2023/07/15 03:16:32;;;;;;;2.20;1.90;;;16.00;95.10;;;;;;2079097;28;20716;-68
2023/07/15 03:17:37;;;;;;;3.60;2.40;;;16.00;95.20;;;;;;2084483;28;20225;-67
2023/07/15 03:18:38;;;;;;;2.25;2.05;;;15.90;95.30;;;;;;2076047;28;20614;-67
2023/07/15 03:19:39;;;;;;;2.60;2.37;;;15.90;95.30;;;;;;2077890;28;20232;-67
2023/07/15 03:20:40;;;;;;;3.60;2.40;;;16.00;95.30;;;;;;2073972;28;20705;-67
2023/07/15 03:21:41;;;;;;;3.03;2.50;;;16.00;95.30;;;;;;2072663;28;20309;-67
2023/07/15 03:22:42;;;;;;;3.83;2.40;;;16.10;95.20;;;;;;2075659;28;20221;-67
2023/07/15 03:23:44;;;;;;;2.30;2.00;;;16.00;95.50;;;;;;2078179;28;20221;-67
2023/07/15 03:24:45;;;;;;;2.50;2.15;;;15.90;95.70;;;;;;2078624;28;20224;-67
2023/07/15 03:25:45;;;;;;;4.03;2.40;;;15.90;95.80;;;;;;2075500;28;20268;-67
2023/07/15 03:26:46;;;;;;;3.47;2.70;;;15.90;95.80;;;;;;2076657;28;20228;-67
2023/07/15 03:27:49;;;;;;;3.00;2.10;;;15.90;95.80;;;;;;2079052;28;20220;-67
2023/07/15 03:28:50;;;;;;;3.63;2.40;;;15.90;95.70;;;;;;2067779;28;20297;-67
2023/07/15 03:29:51;;;;;;;2.40;2.20;;;15.90;95.70;;;;;;2064215;28;20340;-67
2023/07/15 03:30:52;;;;;;;3.63;2.35;;;15.80;95.80;;;;;;2077704;28;20638;-67
2023/07/15 03:31:52;;;;;;;3.00;2.30;;;15.70;95.80;;;;;;2083343;28;20262;-67
2023/07/15 03:32:56;;;;;;;3.20;1.93;;;15.70;95.90;;;;;;2078896;28;20264;-67
2023/07/15 03:33:57;;;;;;;4.28;2.55;;;15.70;96.00;;;;;;2077284;28;20820;-67
2023/07/15 03:34:58;;;;;;;4.10;2.22;;;15.70;95.90;;;;;;2079043;28;20308;-67
2023/07/15 03:35:59;;;;;;;4.30;2.43;;;15.60;95.90;;;;;;2079283;28;20221;-67
2023/07/15 03:37:00;;;;;;;3.80;2.30;;;15.70;95.90;;;;;;2078851;28;20746;-67
2023/07/15 03:38:01;;;;;;;2.50;2.20;;;15.70;95.90;;;;;;2075693;28;20224;-71
2023/07/15 03:39:02;;;;;;;3.30;2.70;;;15.60;96.00;;;;;;2077477;28;20272;-68
2023/07/15 03:40:08;;;;;;;3.13;2.30;;;15.60;95.90;;;;;;2077957;28;20185;-68
2023/07/15 03:41:08;;;;;;;3.33;2.08;;;15.60;96.30;;;;;;2068447;28;20196;-67
2023/07/15 03:42:09;;;;;;;3.60;2.23;;;15.50;96.50;;;;;;2078945;28;20208;-67
2023/07/15 03:43:10;;;;;;;2.20;2.00;;;15.60;96.60;;;;;;2078891;28;20681;-67
2023/07/15 03:44:11;;;;;;;2.80;2.60;;;15.50;96.80;;;;;;2077974;28;20221;-67
2023/07/15 03:45:11;;;;;;;2.60;2.40;;;15.40;97.50;;;;;;2075784;28;20178;-67
2023/07/15 03:46:12;;;;;;;2.20;2.00;;;15.30;97.50;;;;;;2081188;28;20616;-67
2023/07/15 03:47:13;;;;;;;3.67;2.35;;;15.30;97.50;;;;;;2070631;28;20181;-67
2023/07/15 03:48:14;;;;;;;2.20;2.00;;;15.30;97.40;;;;;;2075160;28;20204;-67
2023/07/15 03:49:15;;;;;;;2.13;1.93;;;15.30;97.30;;;;;;2066953;28;20201;-67
2023/07/15 03:50:16;;;;;;;4.60;2.33;;;15.40;97.30;;;;;;2071052;28;20276;-67
2023/07/15 03:51:16;;;;;;;3.33;2.40;;;15.50;96.90;;;;;;2073448;28;20232;-67
2023/07/15 03:52:18;;;;;;;2.53;2.20;;;15.50;96.60;;;;;;2082242;28;20810;-67
2023/07/15 03:53:18;;;;;;;2.50;2.30;;;15.60;96.30;;;;;;2085622;28;20271;-67
2023/07/15 03:54:19;;;;;;;1.87;1.77;;;15.50;96.20;;;;;;2083026;28;20208;-67
2023/07/15 03:55:20;;;;;;;2.77;2.03;;;15.40;96.20;;;;;;2076850;28;20256;-67
2023/07/15 03:56:21;;;;;;;4.33;2.20;;;15.40;96.20;;;;;;2075342;28;20311;-67
2023/07/15 03:57:22;;;;;;;2.40;2.20;;;15.40;96.40;;;;;;2080815;28;20224;-67
2023/07/15 03:58:22;;;;;;;2.33;2.03;;;15.40;96.40;;;;;;2082654;28;20240;-67
2023/07/15 03:59:23;;;;;;;2.20;2.00;;;15.40;96.20;;;;;;2084595;28;20786;-67
2023/07/15 04:00:24;;;;;;;2.57;2.30;;;15.50;96.20;;;;;;2077335;28;20221;-67
2023/07/15 04:01:25;;;;;;;3.73;2.20;;;15.40;96.80;;;;;;2077770;28;20225;-69
2023/07/15 04:02:25;;;;;;;2.97;2.20;;;15.50;96.00;;;;;;2085174;28;20275;-67
2023/07/15 04:03:27;;;;;;;2.00;1.80;;;15.50;95.90;;;;;;2077531;28;20716;-67
2023/07/15 04:04:28;;;;;;;2.47;2.20;;;15.50;96.30;;;;;;2074733;28;20300;-67
2023/07/15 04:05:28;;;;;;;2.50;2.30;;;15.40;96.20;;;;;;2078380;28;20216;-67
2023/07/15 04:06:31;;;;;;;2.50;2.00;;;15.40;96.50;;;;;;2078868;28;20258;-67
2023/07/15 04:07:32;;;;;;;2.42;2.22;;;15.30;96.90;;;;;;2077603;28;20217;-67
2023/07/15 04:08:34;;;;;;;2.43;2.23;;;15.30;96.80;;;;;;2082865;28;20291;-67
2023/07/15 04:09:36;;;;;;;2.40;2.20;;;15.40;96.60;;;;;;2086206;28;20382;-67
2023/07/15 04:10:37;;;;;;;2.72;2.38;;;15.50;96.60;;;;;;2072514;28;20626;-69
2023/07/15 04:11:39;;;;;;;2.53;2.33;;;15.50;96.40;;;;;;2073405;28;20225;-67
2023/07/15 04:12:40;;;;;;;2.00;1.80;;;15.50;96.20;;;;;;2073391;28;20233;-67
2023/07/15 04:13:40;;;;;;;2.10;1.90;;;15.60;95.90;;;;;;2066718;28;20329;-67
2023/07/15 04:14:41;;;;;;;3.57;2.30;;;15.70;95.80;;;;;;2076747;28;20344;-69
2023/07/15 04:15:42;;;;;;;3.80;2.20;;;15.80;95.40;;;;;;2079469;28;20700;-67
2023/07/15 04:16:43;;;;;;;2.10;1.90;;;15.80;95.10;;;;;;2079314;28;20520;-67
2023/07/15 04:17:44;;;;;;;3.28;2.55;;;15.80;95.20;;;;;;2078749;28;20213;-67
2023/07/15 04:18:45;;;;;;;2.30;2.10;;;15.80;95.30;;;;;;2078836;28;20217;-67
2023/07/15 04:19:45;;;;;;;3.67;2.60;;;15.80;95.50;;;;;;2078693;28;20815;-67
2023/07/15 04:20:46;;;;;;;5.50;2.80;;;15.80;95.50;;;;;;2078738;28;20221;-67
2023/07/15 04:21:47;;;;;;;2.60;2.40;;;15.80;95.50;;;;;;2075708;28;20229;-67
2023/07/15 04:22:48;;;;;;;2.20;2.00;;;15.80;95.60;;;;;;2071833;28;20912;-70
2023/07/15 04:23:49;;;;;;;2.40;2.20;;;15.80;95.40;;;;;;2055123;28;20223;-67
2023/07/15 04:24:49;;;;;;;2.22;2.03;;;15.90;95.40;;;;;;2068990;28;20296;-68
2023/07/15 04:25:50;;;;;;;2.20;2.00;;;15.80;95.30;;;;;;2075129;28;20610;-66
2023/07/15 04:26:51;;;;;;;3.10;2.43;;;15.90;95.40;;;;;;2086433;28;20242;-66
2023/07/15 04:27:52;;;;;;;3.00;2.10;;;15.90;95.60;;;;;;2084267;28;20228;-66
2023/07/15 04:28:54;;;;;;;2.00;1.80;;;15.90;95.20;;;;;;2073688;28;20281;-66
2023/07/15 04:29:55;;;;;;;2.95;1.85;;;16.00;95.50;;;;;;2085064;28;20228;-66
2023/07/15 04:30:56;;;;;;;4.30;2.33;;;16.00;94.60;;;;;;2074324;28;20261;-66
2023/07/15 04:31:57;;;;;;;2.20;1.90;;;16.10;94.40;;;;;;2070502;28;20720;-66
2023/07/15 04:32:58;;;;;;;2.30;1.92;;;16.10;94.50;;;;;;2077507;28;20780;-66
2023/07/15 04:33:59;;;;;;;2.57;2.17;;;16.20;94.60;;;;;;2074978;28;20282;-67
2023/07/15 04:35:01;;;;;;;3.43;1.97;;;16.30;94.50;;;;;;2079115;28;20752;-67
2023/07/15 04:36:02;;;;;;;2.97;2.00;;;16.30;94.00;;;;;;2085732;28;20787;-67
2023/07/15 04:37:05;;;;;;;2.60;1.80;;;16.30;93.60;;;;;;2078473;28;20180;-67
2023/07/15 04:38:05;;;;;;;1.87;1.70;;;16.40;93.50;;;;;;2078660;28;20430;-67
2023/07/15 04:39:06;;;;;;;2.53;1.90;;;16.40;93.90;;;;;;2074954;28;20548;-68
2023/07/15 04:40:07;;;;;;;2.40;1.80;;;16.50;93.30;;;;;;2077579;28;20195;-67
2023/07/15 04:41:08;;;;;;;2.90;2.10;;;16.50;93.30;;;;;;2078031;28;20233;-67
2023/07/15 04:42:09;;;;;;;3.70;1.93;;;16.50;93.10;;;;;;2078515;28;20444;-67
2023/07/15 04:43:10;;;;;;;3.03;2.43;;;16.50;93.10;;;;;;2083450;28;20181;-67
2023/07/15 04:44:11;;;;;;;2.83;1.90;;;16.50;92.90;;;;;;2074260;28;20443;-67
2023/07/15 04:45:11;;;;;;;2.43;2.03;;;16.40;92.50;;;;;;2076316;28;20720;-67
2023/07/15 04:46:15;;;;;;;2.50;1.90;;;16.40;92.80;;;;;;2078634;28;20227;-67
2023/07/15 04:47:15;;;;;;;2.73;2.10;;;16.30;92.80;;;;;;2070681;28;20276;-67
2023/07/15 04:48:16;;;;;;;2.20;2.00;;;16.30;92.90;;;;;;2070491;28;20492;-67
2023/07/15 04:49:17;;;;;;;2.23;2.03;;;16.30;93.00;;;;;;2078475;28;20226;-67
2023/07/15 04:50:18;;;;;;;3.10;2.20;;;16.30;93.30;;;;;;2070712;28;20190;-67
2023/07/15 04:51:19;;;;;;;2.67;2.30;;;16.30;93.40;;;;;;2079050;28;20469;-67
2023/07/15 04:52:20;;;;;;;3.37;2.00;;;16.30;93.40;;;;;;2077635;28;20588;-67
2023/07/15 04:53:21;;;;;;;3.13;2.73;;;16.40;93.50;;;;;;2072465;28;20572;-67
2023/07/15 04:54:21;;;;;;;2.30;2.03;;;16.40;93.50;;;;;;2075250;28;20720;-67
2023/07/15 04:55:23;;;;;;;3.07;2.30;;;16.40;93.50;;;;;;2077538;28;20679;-67
2023/07/15 04:56:24;;;;;;;2.67;2.00;;;16.40;93.00;;;;;;2072323;28;20463;-67
2023/07/15 04:57:25;;;;;;;2.80;1.93;;;16.40;92.80;;;;;;2075465;28;20493;-69
2023/07/15 04:58:26;;;;;;;4.20;1.93;;;16.50;92.00;;;;;;2078397;28;20274;-67
2023/07/15 04:59:27;;;;;;;3.47;2.10;;;16.60;91.50;;;;;;2074315;28;20255;-67
2023/07/15 05:00:29;;;;;;;2.13;1.90;;;16.60;91.30;;;;;;2069574;28;20236;-67
2023/07/15 05:01:30;;;;;;;3.00;2.23;;;16.70;90.90;;;;;;2075804;28;20461;-67
2023/07/15 05:02:31;;;;;;;1.90;1.70;;;16.70;90.70;;;;;;2080954;28;20461;-67
2023/07/15 05:03:33;;;;;;;2.00;1.80;;;16.80;91.00;;;;;;2074370;28;20485;-67
2023/07/15 05:04:33;;;;;;;2.40;2.00;;;16.80;90.60;;;;;;2077804;28;20705;-67
2023/07/15 05:05:35;;;;;;;2.93;2.00;;;16.90;90.00;;;;;;2078481;28;20474;-68
2023/07/15 05:06:37;;;;;;;1.80;1.53;;;17.00;90.70;;;;;;2078513;28;20318;-66
2023/07/15 05:07:38;;;;;;;2.13;1.93;;;17.00;90.80;;;;;;2078777;28;20548;-66
2023/07/15 05:08:38;;;;;;;2.10;1.70;;;17.00;91.00;;;;;;2071823;28;20470;-67
2023/07/15 05:09:39;;;;;;;1.70;1.60;;;16.90;90.40;;;;;;2076097;28;20553;-66
2023/07/15 05:10:40;;;;;;;2.90;1.93;;;17.00;90.00;;;;;;2073420;28;20327;-67
2023/07/15 05:11:41;;;;;;;2.10;1.90;;;17.10;89.90;;;;;;2074038;28;20474;-67
2023/07/15 05:12:42;;;;;;;2.20;2.00;;;17.10;87.70;;;;;;2074834;28;20224;-67
2023/07/15 05:13:43;;;;;;;2.33;2.00;;;17.10;87.80;;;;;;2081985;28;20315;-67
2023/07/15 05:14:48;;;;;;;3.80;2.27;;;17.30;87.00;;;;;;2076750;28;20225;-67
2023/07/15 05:15:50;;;;;;;3.37;2.10;;;17.30;86.20;;;;;;2078365;28;20478;-67
2023/07/15 05:16:50;;;;;;;3.27;2.07;;;17.40;86.50;;;;;;2078213;28;20290;-68
2023/07/15 05:17:51;;;;;;;3.70;1.97;;;17.40;85.50;;;;;;2075237;28;20470;-67
2023/07/15 05:18:52;;;;;;;3.50;2.23;;;17.40;85.20;;;;;;2074659;28;20224;-67
2023/07/15 05:19:53;;;;;;;6.10;2.17;;;17.50;85.60;;;;;;2077299;28;20556;-67
2023/07/15 05:20:54;;;;;;;5.40;1.90;;;17.50;85.90;;;;;;2066199;28;20222;-67